Saimaagracht — PHCQ — position and weather

sailwx.info

Track history (hours):
 
Tides and Currents Weather Stations Pressure Air Temp Water Temp Dewpoint Dewpoint Depression Visibility Wind Speed Wind Dir Waves Ship Positions

Saimaagracht

Last reported at 2019-May-23 18:00 UTC. Time now 2019-May-24 00:54 UTC.
Position N 36°30' W 067°54'.

Length 173 m; beam 26 m.

Type: Cargo ship. MMSI: 246293000.

Wind from 050 at 1 knots

Barometer 1024.1 mb
Air temperature 21.7 ° C
Visibility: greater than 10.8 NM
Dewpoint 9.7 ° C
Water temperature 24.2 ° C

Date/timePositionNaut miles runAvg speedWind from/ knotsBaromVisibWave heightAir tempDewpointWater temp
2019-May-23 18:00N 36°30' W 067°54'16914.1 050 / 11024.110.8 21.7 9.724.2
2019-May-23 06:00N 35°24' W 071°06'15512.9 070 / 81024.110.8 19.011.422.0
2019-May-22 18:00N 34°24' W 074°00'8013.4 060 / 81022.610.8 24.014.626.1
2019-May-22 12:00N 33°54' W 075°30'21713.5 030 / 121019.927.0 23.916.425.9
2019-May-21 19:54N 32°41' W 079°35'1412.9
2019-May-21 18:50N 32°44' W 079°51'514.1
2019-May-21 18:30N 32°47' W 079°55'3 0.5
2019-May-21 11:23N 32°50' W 079°53'0 0.0
2019-May-21 01:53N 32°50' W 079°53'0 0.0
2019-May-20 02:09N 32°50' W 079°54'1 4.7
2019-May-20 01:53N 32°49' W 079°55'3 7.9
2019-May-20 01:31N 32°46' W 079°53'339 9.0
2019-May-18 11:40N 37°30' W 076°06'414.6
2019-May-18 11:25N 37°34' W 076°07'715.2
2019-May-18 10:56N 37°41' W 076°09'715.7
2019-May-18 10:31N 37°47' W 076°11'815.1
2019-May-18 10:01N 37°55' W 076°11'915.3
2019-May-18 09:27N 38°03' W 076°14'715.2
2019-May-18 09:00N 38°10' W 076°16'714.7
2019-May-18 08:30N 38°17' W 076°18'2514.1
2019-May-18 06:43N 38°41' W 076°26'514.0
2019-May-18 06:24N 38°45' W 076°26'714.4
2019-May-18 05:55N 38°52' W 076°24'614.9
2019-May-18 05:31N 38°58' W 076°23'714.8
2019-May-18 05:01N 39°06' W 076°24'612.8
2019-May-18 04:30N 39°11' W 076°28'611.6
2019-May-18 04:00N 39°15' W 076°34'2 3.1
2019-May-18 03:26N 39°16' W 076°36'0 0.0
2019-May-18 03:00N 39°16' W 076°36'0 0.0
2019-May-18 02:30N 39°16' W 076°36'0 0.0
2019-May-18 02:00N 39°16' W 076°36'0 0.0
2019-May-18 01:30N 39°16' W 076°36'0 0.0
2019-May-18 00:59N 39°16' W 076°36'0 0.0
2019-May-18 00:29N 39°16' W 076°36'0 0.0
2019-May-17 23:59N 39°16' W 076°36'0 0.0
2019-May-17 23:29N 39°16' W 076°36'0 0.0
2019-May-17 22:59N 39°16' W 076°36'0 0.0
2019-May-17 22:29N 39°16' W 076°36'0 0.0
2019-May-17 21:59N 39°16' W 076°36'0 0.0
2019-May-17 21:30N 39°16' W 076°36'0 0.0
2019-May-17 20:59N 39°16' W 076°36'0 0.0
2019-May-17 20:29N 39°16' W 076°36'0 0.0
2019-May-17 19:59N 39°16' W 076°36'0 0.0
2019-May-17 19:29N 39°16' W 076°36'0 0.0
2019-May-17 18:56N 39°16' W 076°36'0 0.0
2019-May-17 18:26N 39°16' W 076°36'0 0.0
2019-May-17 17:59N 39°16' W 076°36'0 0.0
2019-May-17 17:26N 39°16' W 076°36'0 0.0
2019-May-17 16:59N 39°16' W 076°36'0 0.0
2019-May-17 16:26N 39°16' W 076°36'0 0.0
2019-May-17 15:59N 39°16' W 076°36'0 0.0
2019-May-17 15:26N 39°16' W 076°36'0 0.0
2019-May-17 14:59N 39°16' W 076°36'0 0.0
2019-May-17 14:29N 39°16' W 076°36'0 0.0
2019-May-17 13:59N 39°16' W 076°36'0 0.0
2019-May-17 13:29N 39°16' W 076°36'0 0.0
2019-May-17 12:59N 39°16' W 076°36'0 0.0
2019-May-17 12:29N 39°16' W 076°36'0 0.0
2019-May-17 11:59N 39°16' W 076°36'0 0.0
2019-May-17 11:29N 39°16' W 076°36'0 0.0
2019-May-17 10:58N 39°16' W 076°36'0 0.0
2019-May-17 10:29N 39°16' W 076°36'0 0.0
2019-May-17 09:59N 39°16' W 076°36'0 0.0
2019-May-17 09:28N 39°16' W 076°36'0 0.0
2019-May-17 08:58N 39°16' W 076°36'0 0.0
2019-May-17 08:29N 39°16' W 076°36'0 0.0
2019-May-17 07:59N 39°16' W 076°36'0 0.0
2019-May-17 07:28N 39°16' W 076°36'0 0.0
2019-May-17 06:58N 39°16' W 076°36'0 0.0
2019-May-17 06:28N 39°16' W 076°36'0 0.0
2019-May-17 05:58N 39°16' W 076°36'0 0.0
2019-May-17 05:28N 39°16' W 076°36'0 0.0
2019-May-17 04:58N 39°16' W 076°36'0 0.0
2019-May-17 04:28N 39°16' W 076°36'0 0.0
2019-May-17 03:58N 39°16' W 076°36'0 0.0
2019-May-17 03:28N 39°16' W 076°36'0 0.0
2019-May-17 02:56N 39°16' W 076°36'0 0.0
2019-May-17 02:28N 39°16' W 076°36'0 0.0
2019-May-17 01:58N 39°16' W 076°36'0 0.0
2019-May-17 01:28N 39°16' W 076°36'0 0.0
2019-May-17 00:58N 39°16' W 076°36'0 0.0
2019-May-17 00:28N 39°16' W 076°36'0 0.0
2019-May-16 23:58N 39°16' W 076°36'0 0.0
2019-May-16 23:28N 39°16' W 076°36'0 0.0
2019-May-16 22:58N 39°16' W 076°36'0 0.0
2019-May-16 22:28N 39°16' W 076°36'0 0.0
2019-May-16 21:58N 39°16' W 076°36'0 0.0
2019-May-16 21:28N 39°16' W 076°36'0 0.0
2019-May-16 20:58N 39°16' W 076°36'0 0.0
2019-May-16 20:28N 39°16' W 076°36'0 0.0
2019-May-16 19:58N 39°16' W 076°36'0 0.0
2019-May-16 19:28N 39°16' W 076°36'0 0.0
2019-May-16 18:58N 39°16' W 076°36'0 0.0
2019-May-16 18:28N 39°16' W 076°36'0 0.0
2019-May-16 17:58N 39°16' W 076°36'0 0.0
2019-May-16 17:28N 39°16' W 076°36'0 0.0
2019-May-16 16:58N 39°16' W 076°36'0 0.0
2019-May-16 16:28N 39°16' W 076°36'0 0.0
2019-May-16 15:58N 39°16' W 076°36'0 0.0
2019-May-16 15:28N 39°16' W 076°36'0 0.0
2019-May-16 14:58N 39°16' W 076°36'0 0.0
2019-May-16 14:28N 39°16' W 076°36'0 0.0
2019-May-16 13:58N 39°16' W 076°36'0 0.0
2019-May-16 13:28N 39°16' W 076°36'0 0.0
2019-May-16 12:55N 39°16' W 076°36'0 0.0
2019-May-16 12:28N 39°16' W 076°36'0 0.0
2019-May-16 11:58N 39°16' W 076°36'0 0.0
2019-May-16 11:28N 39°16' W 076°36'0 0.0
2019-May-16 10:58N 39°16' W 076°36'0 0.0
2019-May-16 10:28N 39°16' W 076°36'0 0.0
2019-May-16 09:58N 39°16' W 076°36'0 0.0
2019-May-16 09:28N 39°16' W 076°36'0 0.0
2019-May-16 08:58N 39°16' W 076°36'0 0.0
2019-May-16 08:28N 39°16' W 076°36'0 0.0
2019-May-16 07:58N 39°16' W 076°36'0 0.0
2019-May-16 07:28N 39°16' W 076°36'0 0.0
2019-May-16 06:58N 39°16' W 076°36'0 0.0
2019-May-16 06:28N 39°16' W 076°36'0 0.0
2019-May-16 05:58N 39°16' W 076°36'0 0.0
2019-May-16 05:28N 39°16' W 076°36'0 0.0
2019-May-16 04:58N 39°16' W 076°36'0 0.0
2019-May-16 04:28N 39°16' W 076°36'0 0.0
2019-May-16 03:58N 39°16' W 076°36'0 0.0
2019-May-16 03:28N 39°16' W 076°36'0 0.0
2019-May-16 02:58N 39°16' W 076°36'0 0.0
2019-May-16 02:28N 39°16' W 076°36'0 0.0
2019-May-16 01:55N 39°16' W 076°36'0 0.0
2019-May-16 01:31N 39°16' W 076°36'0 0.0
2019-May-16 01:01N 39°16' W 076°36'0 0.0
2019-May-16 00:31N 39°16' W 076°36'0 0.0
2019-May-16 00:00N 39°16' W 076°36'0 0.0
2019-May-15 23:30N 39°16' W 076°36'0 0.0
2019-May-15 23:00N 39°16' W 076°36'0 0.0
2019-May-15 22:30N 39°16' W 076°36'0 0.0
2019-May-15 22:00N 39°16' W 076°36'0 0.0
2019-May-15 21:30N 39°16' W 076°36'0 0.0
2019-May-15 21:00N 39°16' W 076°36'0 0.0
2019-May-15 20:30N 39°16' W 076°36'0 0.0
2019-May-15 20:00N 39°16' W 076°36'0 0.0
2019-May-15 19:30N 39°16' W 076°36'0 0.0
2019-May-15 19:00N 39°16' W 076°36'0 0.0
2019-May-15 18:30N 39°16' W 076°36'0 0.0
2019-May-15 17:58N 39°16' W 076°36'0 0.4
2019-May-15 17:30N 39°16' W 076°36'2 3.9
2019-May-15 17:00N 39°15' W 076°33'3 6.1
2019-May-15 16:30N 39°12' W 076°31'510.1
2019-May-15 16:00N 39°10' W 076°25'612.4
2019-May-15 15:30N 39°04' W 076°23'713.4
2019-May-15 15:01N 38°57' W 076°24'714.1
2019-May-15 14:30N 38°50' W 076°25'3812.8
2019-May-15 11:31N 38°12' W 076°15'413.7
2019-May-15 11:12N 38°08' W 076°14'513.2
2019-May-15 10:50N 38°04' W 076°13'413.0
2019-May-15 10:30N 37°59' W 076°12'712.8
2019-May-15 09:59N 37°53' W 076°10'712.0
2019-May-15 09:26N 37°46' W 076°10'84 8.9
2019-May-15 00:00N 37°00' W 074°42'15112.6 240 / 101012.027.0 14.410.213.9
2019-May-14 12:00N 38°12' W 071°54'8213.7 360 / 171009.010.8 14.010.524.3
2019-May-14 06:00N 38°54' W 070°24'8113.6 330 / 101003.0 5.4 17.216.321.1
2019-May-14 00:00N 39°36' W 068°54'8814.6 090 / 241007.2 2.2 11.110.213.6
2019-May-13 18:00N 40°24' W 067°18'   070 / 221010.9 2.2 11.0 9.2 8.9
Track history (hours):
 
Tides and Currents Weather Stations Pressure Air Temp Water Temp Dewpoint Dewpoint Depression Visibility Wind Speed Wind Dir Waves Ship Positions

Saimaagracht

Last reported at 2019-May-23 18:00 UTC. Time now 2019-May-24 00:54 UTC.
Position N 36°30' W 067°54'.

Length 173 m; beam 26 m.

Type: Cargo ship. MMSI: 246293000.

Wind from 050 at 1 knots

Barometer 1024.1 mb
Air temperature 21.7 ° C
Visibility: greater than 10.8 NM
Dewpoint 9.7 ° C
Water temperature 24.2 ° C

Date/timePositionNaut miles runAvg speedWind from/ knotsBaromVisibWave heightAir tempDewpointWater temp
2019-May-23 18:00N 36°30' W 067°54'16914.1 050 / 11024.110.8 21.7 9.724.2
2019-May-23 06:00N 35°24' W 071°06'15512.9 070 / 81024.110.8 19.011.422.0
2019-May-22 18:00N 34°24' W 074°00'8013.4 060 / 81022.610.8 24.014.626.1
2019-May-22 12:00N 33°54' W 075°30'21713.5 030 / 121019.927.0 23.916.425.9
2019-May-21 19:54N 32°41' W 079°35'1412.9
2019-May-21 18:50N 32°44' W 079°51'514.1
2019-May-21 18:30N 32°47' W 079°55'3 0.5
2019-May-21 11:23N 32°50' W 079°53'0 0.0
2019-May-21 01:53N 32°50' W 079°53'0 0.0
2019-May-20 02:09N 32°50' W 079°54'1 4.7
2019-May-20 01:53N 32°49' W 079°55'3 7.9
2019-May-20 01:31N 32°46' W 079°53'339 9.0
2019-May-18 11:40N 37°30' W 076°06'414.6
2019-May-18 11:25N 37°34' W 076°07'715.2
2019-May-18 10:56N 37°41' W 076°09'715.7
2019-May-18 10:31N 37°47' W 076°11'815.1
2019-May-18 10:01N 37°55' W 076°11'915.3
2019-May-18 09:27N 38°03' W 076°14'715.2
2019-May-18 09:00N 38°10' W 076°16'714.7
2019-May-18 08:30N 38°17' W 076°18'2514.1
2019-May-18 06:43N 38°41' W 076°26'514.0
2019-May-18 06:24N 38°45' W 076°26'714.4
2019-May-18 05:55N 38°52' W 076°24'614.9
2019-May-18 05:31N 38°58' W 076°23'714.8
2019-May-18 05:01N 39°06' W 076°24'612.8
2019-May-18 04:30N 39°11' W 076°28'611.6
2019-May-18 04:00N 39°15' W 076°34'2 3.1
2019-May-18 03:26N 39°16' W 076°36'0 0.0
2019-May-18 03:00N 39°16' W 076°36'0 0.0
2019-May-18 02:30N 39°16' W 076°36'0 0.0
2019-May-18 02:00N 39°16' W 076°36'0 0.0
2019-May-18 01:30N 39°16' W 076°36'0 0.0
2019-May-18 00:59N 39°16' W 076°36'0 0.0
2019-May-18 00:29N 39°16' W 076°36'0 0.0
2019-May-17 23:59N 39°16' W 076°36'0 0.0
2019-May-17 23:29N 39°16' W 076°36'0 0.0
2019-May-17 22:59N 39°16' W 076°36'0 0.0
2019-May-17 22:29N 39°16' W 076°36'0 0.0
2019-May-17 21:59N 39°16' W 076°36'0 0.0
2019-May-17 21:30N 39°16' W 076°36'0 0.0
2019-May-17 20:59N 39°16' W 076°36'0 0.0
2019-May-17 20:29N 39°16' W 076°36'0 0.0
2019-May-17 19:59N 39°16' W 076°36'0 0.0
2019-May-17 19:29N 39°16' W 076°36'0 0.0
2019-May-17 18:56N 39°16' W 076°36'0 0.0
2019-May-17 18:26N 39°16' W 076°36'0 0.0
2019-May-17 17:59N 39°16' W 076°36'0 0.0
2019-May-17 17:26N 39°16' W 076°36'0 0.0
2019-May-17 16:59N 39°16' W 076°36'0 0.0
2019-May-17 16:26N 39°16' W 076°36'0 0.0
2019-May-17 15:59N 39°16' W 076°36'0 0.0
2019-May-17 15:26N 39°16' W 076°36'0 0.0
2019-May-17 14:59N 39°16' W 076°36'0 0.0
2019-May-17 14:29N 39°16' W 076°36'0 0.0
2019-May-17 13:59N 39°16' W 076°36'0 0.0
2019-May-17 13:29N 39°16' W 076°36'0 0.0
2019-May-17 12:59N 39°16' W 076°36'0 0.0
2019-May-17 12:29N 39°16' W 076°36'0 0.0
2019-May-17 11:59N 39°16' W 076°36'0 0.0
2019-May-17 11:29N 39°16' W 076°36'0 0.0
2019-May-17 10:58N 39°16' W 076°36'0 0.0
2019-May-17 10:29N 39°16' W 076°36'0 0.0
2019-May-17 09:59N 39°16' W 076°36'0 0.0
2019-May-17 09:28N 39°16' W 076°36'0 0.0
2019-May-17 08:58N 39°16' W 076°36'0 0.0
2019-May-17 08:29N 39°16' W 076°36'0 0.0
2019-May-17 07:59N 39°16' W 076°36'0 0.0
2019-May-17 07:28N 39°16' W 076°36'0 0.0
2019-May-17 06:58N 39°16' W 076°36'0 0.0
2019-May-17 06:28N 39°16' W 076°36'0 0.0
2019-May-17 05:58N 39°16' W 076°36'0 0.0
2019-May-17 05:28N 39°16' W 076°36'0 0.0
2019-May-17 04:58N 39°16' W 076°36'0 0.0
2019-May-17 04:28N 39°16' W 076°36'0 0.0
2019-May-17 03:58N 39°16' W 076°36'0 0.0
2019-May-17 03:28N 39°16' W 076°36'0 0.0
2019-May-17 02:56N 39°16' W 076°36'0 0.0
2019-May-17 02:28N 39°16' W 076°36'0 0.0
2019-May-17 01:58N 39°16' W 076°36'0 0.0
2019-May-17 01:28N 39°16' W 076°36'0 0.0
2019-May-17 00:58N 39°16' W 076°36'0 0.0
2019-May-17 00:28N 39°16' W 076°36'0 0.0
2019-May-16 23:58N 39°16' W 076°36'0 0.0
2019-May-16 23:28N 39°16' W 076°36'0 0.0
2019-May-16 22:58N 39°16' W 076°36'0 0.0
2019-May-16 22:28N 39°16' W 076°36'0 0.0
2019-May-16 21:58N 39°16' W 076°36'0 0.0
2019-May-16 21:28N 39°16' W 076°36'0 0.0
2019-May-16 20:58N 39°16' W 076°36'0 0.0
2019-May-16 20:28N 39°16' W 076°36'0 0.0
2019-May-16 19:58N 39°16' W 076°36'0 0.0
2019-May-16 19:28N 39°16' W 076°36'0 0.0
2019-May-16 18:58N 39°16' W 076°36'0 0.0
2019-May-16 18:28N 39°16' W 076°36'0 0.0
2019-May-16 17:58N 39°16' W 076°36'0 0.0
2019-May-16 17:28N 39°16' W 076°36'0 0.0
2019-May-16 16:58N 39°16' W 076°36'0 0.0
2019-May-16 16:28N 39°16' W 076°36'0 0.0
2019-May-16 15:58N 39°16' W 076°36'0 0.0
2019-May-16 15:28N 39°16' W 076°36'0 0.0
2019-May-16 14:58N 39°16' W 076°36'0 0.0
2019-May-16 14:28N 39°16' W 076°36'0 0.0
2019-May-16 13:58N 39°16' W 076°36'0 0.0
2019-May-16 13:28N 39°16' W 076°36'0 0.0
2019-May-16 12:55N 39°16' W 076°36'0 0.0
2019-May-16 12:28N 39°16' W 076°36'0 0.0
2019-May-16 11:58N 39°16' W 076°36'0 0.0
2019-May-16 11:28N 39°16' W 076°36'0 0.0
2019-May-16 10:58N 39°16' W 076°36'0 0.0
2019-May-16 10:28N 39°16' W 076°36'0 0.0
2019-May-16 09:58N 39°16' W 076°36'0 0.0
2019-May-16 09:28N 39°16' W 076°36'0 0.0
2019-May-16 08:58N 39°16' W 076°36'0 0.0
2019-May-16 08:28N 39°16' W 076°36'0 0.0
2019-May-16 07:58N 39°16' W 076°36'0 0.0
2019-May-16 07:28N 39°16' W 076°36'0 0.0
2019-May-16 06:58N 39°16' W 076°36'0 0.0
2019-May-16 06:28N 39°16' W 076°36'0 0.0
2019-May-16 05:58N 39°16' W 076°36'0 0.0
2019-May-16 05:28N 39°16' W 076°36'0 0.0
2019-May-16 04:58N 39°16' W 076°36'0 0.0
2019-May-16 04:28N 39°16' W 076°36'0 0.0
2019-May-16 03:58N 39°16' W 076°36'0 0.0
2019-May-16 03:28N 39°16' W 076°36'0 0.0
2019-May-16 02:58N 39°16' W 076°36'0 0.0
2019-May-16 02:28N 39°16' W 076°36'0 0.0
2019-May-16 01:55N 39°16' W 076°36'0 0.0
2019-May-16 01:31N 39°16' W 076°36'0 0.0
2019-May-16 01:01N 39°16' W 076°36'0 0.0
2019-May-16 00:31N 39°16' W 076°36'0 0.0
2019-May-16 00:00N 39°16' W 076°36'0 0.0
2019-May-15 23:30N 39°16' W 076°36'0 0.0
2019-May-15 23:00N 39°16' W 076°36'0 0.0
2019-May-15 22:30N 39°16' W 076°36'0 0.0
2019-May-15 22:00N 39°16' W 076°36'0 0.0
2019-May-15 21:30N 39°16' W 076°36'0 0.0
2019-May-15 21:00N 39°16' W 076°36'0 0.0
2019-May-15 20:30N 39°16' W 076°36'0 0.0
2019-May-15 20:00N 39°16' W 076°36'0 0.0
2019-May-15 19:30N 39°16' W 076°36'0 0.0
2019-May-15 19:00N 39°16' W 076°36'0 0.0
2019-May-15 18:30N 39°16' W 076°36'0 0.0
2019-May-15 17:58N 39°16' W 076°36'0 0.4
2019-May-15 17:30N 39°16' W 076°36'2 3.9
2019-May-15 17:00N 39°15' W 076°33'3 6.1
2019-May-15 16:30N 39°12' W 076°31'510.1
2019-May-15 16:00N 39°10' W 076°25'612.4
2019-May-15 15:30N 39°04' W 076°23'713.4
2019-May-15 15:01N 38°57' W 076°24'714.1
2019-May-15 14:30N 38°50' W 076°25'3812.8
2019-May-15 11:31N 38°12' W 076°15'413.7
2019-May-15 11:12N 38°08' W 076°14'513.2
2019-May-15 10:50N 38°04' W 076°13'413.0
2019-May-15 10:30N 37°59' W 076°12'712.8
2019-May-15 09:59N 37°53' W 076°10'712.0
2019-May-15 09:26N 37°46' W 076°10'84 8.9
2019-May-15 00:00N 37°00' W 074°42'15112.6 240 / 101012.027.0 14.410.213.9
2019-May-14 12:00N 38°12' W 071°54'8213.7 360 / 171009.010.8 14.010.524.3
2019-May-14 06:00N 38°54' W 070°24'8113.6 330 / 101003.0 5.4 17.216.321.1
2019-May-14 00:00N 39°36' W 068°54'8814.6 090 / 241007.2 2.2 11.110.213.6
2019-May-13 18:00N 40°24' W 067°18'   070 / 221010.9 2.2 11.0 9.2 8.9

Dump ship's entire track history